IST,Max TemperatureF,Mean TemperatureF,Min TemperatureF,Max Dew PointF,MeanDew PointF,Min DewpointF,Max Humidity, Mean Humidity, Min Humidity, Max Sea Level PressureIn, Mean Sea Level PressureIn, Min Sea Level PressureIn, Max VisibilityMiles, Mean VisibilityMiles, Min VisibilityMiles, Max Wind SpeedMPH, Mean Wind SpeedMPH, Max Gust SpeedMPH,PrecipitationIn, CloudCover, Events, WindDirDegrees
2013-3-1,43,38,33,37,34,32,100,82,64,30.48,30.44,30.42,19,7,6,16,11,,0.00,6,,38
2013-3-2,41,39,37,34,32,30,81,75,60,30.47,30.34,30.27,19,7,6,10,8,,0.00,6,,49
2013-3-3,40,38,37,36,34,34,87,83,73,30.24,30.11,29.95,19,7,6,15,10,,0.00,6,,91
2013-3-4,43,40,37,41,39,34,93,90,75,29.98,29.77,29.65,9,4,2,16,12,,0.00,6,Rain,109
2013-3-5,46,42,38,43,40,37,100,93,76,29.68,29.53,29.44,4,2,1,22,14,30,0.04,6,Rain,84
2013-3-6,47,44,42,47,46,44,100,100,98,29.46,29.37,29.33,2,1,0,18,15,,0.02,7,Fog-Rain,95
2013-3-7,48,47,46,48,47,46,100,100,98,29.33,29.19,29.12,2,1,0,22,16,,0.39,7,Fog-Rain,104
2013-3-8,50,48,46,50,48,46,100,100,93,29.34,29.22,29.09,6,2,0,20,14,,0.04,7,Fog-Rain,147
2013-3-9,49,46,42,48,46,43,100,100,93,29.50,29.42,29.27,12,3,0,23,17,,0.00,6,Fog-Rain,113
2013-3-10,43,38,33,46,39,25,100,98,70,29.77,29.58,29.47,10,5,2,30,23,44,0.51,6,Rain-Snow,66
2013-3-11,35,32,28,27,23,16,93,71,48,30.01,29.88,29.77,12,6,6,28,21,38,0.00,5,Snow,34
2013-3-12,40,32,24,34,24,18,93,70,38,30.09,30.04,30.01,16,7,6,21,14,,0.00,3,,351
2013-3-13,48,40,33,37,35,34,100,82,58,30.09,30.03,30.01,19,6,6,20,12,30,0.00,4,,319
2013-3-14,47,40,33,41,36,32,100,85,59,30.14,30.03,29.80,19,6,6,16,10,,0.04,4,,264
2013-3-15,48,42,35,43,38,34,100,86,66,29.82,29.53,29.33,12,6,6,21,13,,0.02,4,Rain,239
2013-3-16,46,38,30,37,33,27,100,81,49,29.36,29.28,29.21,6,6,6,10,6,,0.03,4,Rain,24
2013-3-17,46,38,31,37,34,30,93,83,61,29.40,29.24,29.18,19,6,6,21,11,34,0.00,4,Rain,301
2013-3-18,45,40,35,36,35,32,100,85,57,29.42,29.28,29.18,19,7,6,17,8,,0.01,5,Rain,327
2013-3-19,40,36,33,36,32,27,100,83,55,29.50,29.45,29.42,16,7,6,14,10,,0.00,5,,352
2013-3-20,46,38,31,36,32,27,100,80,41,29.80,29.68,29.53,12,6,6,14,9,,0.00,4,Rain,278
2013-3-21,50,44,37,50,42,36,100,95,76,29.77,29.51,29.27,19,4,0,32,22,46,0.94,7,Fog-Rain,112
2013-3-22,50,46,42,48,47,43,100,98,92,29.50,29.31,29.15,12,5,2,34,21,51,0.16,5,Rain,137
2013-3-23,45,42,39,45,43,39,100,98,93,29.74,29.61,29.50,12,4,0,26,17,36,0.01,6,Fog-Rain,100
2013-3-24,37,35,33,39,34,31,100,91,81,29.92,29.83,29.74,16,6,6,22,19,31,0.00,6,Rain,75
2013-3-25,36,34,33,34,29,25,100,78,56,30.00,29.95,29.92,16,7,5,22,15,,0.00,6,,66
2013-3-26,39,34,29,30,28,25,100,79,60,30.04,29.97,29.95,19,6,2,20,15,,0.01,6,Rain-Snow,55
2013-3-27,39,33,27,27,26,23,93,75,56,29.97,29.93,29.92,16,7,6,18,12,,0.00,4,,46
2013-3-28,40,34,28,30,27,25,93,75,55,29.98,29.87,29.74,19,7,6,21,13,,0.00,5,,79
2013-3-29,41,38,35,32,30,27,81,72,60,29.77,29.71,29.68,16,7,6,25,19,36,0.00,6,,102
2013-3-30,39,37,35,36,28,25,93,69,49,29.90,29.83,29.74,19,7,6,18,12,,0.00,6,,98
2013-3-31,40,38,36,39,35,30,100,87,70,29.85,29.72,29.65,9,6,4,25,18,,0.55,7,Rain,125
2013-4-1,,,,,,,,,,,,,,,,,,,,,,